Time;durP1;ratioP1;P1;durP2;ratioP2;P2;SDS_P1;SDS_P2;PMS_P1;PMS_P2;Temp;Humidity;BMP_temperature;BMP_pressure;BME280_temperature;BME280_humidity;BME280_pressure;Samples;Min_cycle;Max_cycle;Signal;HPM_P1;HPM_P2
2020/12/13 00:01:18;;;;;;;58.80;33.40;;;;;;;-144.99;100.00;52594.84;5047639;28;20769;-74
2020/12/13 00:03:44;;;;;;;70.17;36.50;;;;;;;-144.99;100.00;52521.47;5048441;28;21127;-74
2020/12/13 00:06:11;;;;;;;66.23;38.23;;;;;;;-144.99;100.00;52558.16;5047647;28;21251;-75
2020/12/13 00:08:38;;;;;;;57.40;36.17;;;;;;;-144.99;100.00;52545.94;5046230;28;20627;-74
2020/12/13 00:11:04;;;;;;;67.87;38.57;;;;;;;-144.99;100.00;52541.84;5047730;28;20731;-75
2020/12/13 00:13:30;;;;;;;58.27;33.60;;;;;;;-144.99;100.00;52545.94;5048692;28;20638;-76
2020/12/13 00:15:56;;;;;;;55.40;35.63;;;;;;;-144.99;100.00;52545.94;5046762;28;20739;-75
2020/12/13 00:18:22;;;;;;;54.17;35.90;;;;;;;-144.99;100.00;52533.69;5048319;28;20691;-76
2020/12/13 00:20:48;;;;;;;59.80;33.37;;;;;;;-144.99;100.00;52529.63;5046047;28;20667;-75
2020/12/13 00:23:15;;;;;;;57.20;35.03;;;;;;;-144.99;100.00;52547.97;5047870;28;21273;-76
2020/12/13 00:25:42;;;;;;;55.67;33.37;;;;;;;-144.99;100.00;52521.47;5047180;28;20628;-75
2020/12/13 00:28:08;;;;;;;52.17;32.00;;;;;;;-144.99;100.00;52574.47;5047856;28;20750;-75
2020/12/13 00:30:35;;;;;;;63.13;33.43;;;;;;;-144.99;100.00;52574.47;5047009;28;20784;-75
2020/12/13 00:33:01;;;;;;;60.20;35.70;;;;;;;-144.99;100.00;52533.69;5047759;28;20697;-74
2020/12/13 00:35:27;;;;;;;47.77;30.33;;;;;;;-144.99;100.00;52578.53;4699450;28;10000529;-74
2020/12/13 00:37:53;;;;;;;60.13;32.27;;;;;;;-144.99;100.00;52545.94;5064013;22;20312;-69
2020/12/13 00:40:19;;;;;;;60.83;34.73;;;;;;;-144.99;100.00;52539.81;5070590;28;20713;-70
2020/12/13 00:42:46;;;;;;;56.17;34.70;;;;;;;-144.99;100.00;52566.31;5070503;28;20765;-70
2020/12/13 00:45:12;;;;;;;55.87;32.23;;;;;;;-144.99;100.00;52578.53;5074472;28;20650;-70
2020/12/13 00:47:38;;;;;;;58.67;30.83;;;;;;;-144.99;100.00;52539.81;5071340;28;20646;-69
2020/12/13 00:50:04;;;;;;;79.60;41.33;;;;;;;-144.99;100.00;52537.78;5071380;28;20623;-69
2020/12/13 00:52:30;;;;;;;56.60;33.67;;;;;;;-144.99;100.00;52570.38;5071499;28;21267;-68
2020/12/13 00:54:57;;;;;;;61.50;31.00;;;;;;;-144.99;100.00;52537.78;5070414;28;21080;-69
2020/12/13 00:57:24;;;;;;;61.33;34.37;;;;;;;-144.99;100.00;52574.47;5070545;28;20688;-68
2020/12/13 00:59:51;;;;;;;69.60;33.47;;;;;;;-144.99;100.00;52521.47;5069374;28;20952;-68
2020/12/13 01:02:17;;;;;;;55.43;33.03;;;;;;;-144.99;100.00;52556.13;5070146;28;21017;-69
2020/12/13 01:04:44;;;;;;;59.70;31.17;;;;;;;-144.99;100.00;52562.25;5070969;28;20719;-67
2020/12/13 01:07:10;;;;;;;60.30;34.60;;;;;;;-144.99;100.00;52578.53;5070305;28;20625;-68
2020/12/13 01:09:36;;;;;;;57.07;32.57;;;;;;;-144.99;100.00;52550.00;5069525;28;20661;-68
2020/12/13 01:12:05;;;;;;;59.47;32.50;;;;;;;-144.99;100.00;52541.84;5070148;28;20657;-68
2020/12/13 01:14:31;;;;;;;65.67;35.03;;;;;;;-144.99;100.00;52554.09;5069335;28;20625;-68
2020/12/13 01:16:58;;;;;;;61.10;33.10;;;;;;;-144.99;100.00;52556.13;5069570;28;21203;-68
2020/12/13 01:19:24;;;;;;;63.27;34.87;;;;;;;-144.99;100.00;52537.78;5069374;28;20655;-68
2020/12/13 01:21:50;;;;;;;59.40;34.83;;;;;;;-144.99;100.00;52562.25;5069809;28;20984;-68
2020/12/13 01:24:17;;;;;;;73.73;35.67;;;;;;;-144.99;100.00;52529.63;5069247;28;21215;-68
2020/12/13 01:26:43;;;;;;;64.60;35.17;;;;;;;-144.99;100.00;52537.78;5068786;28;20734;-68
2020/12/13 01:29:09;;;;;;;62.50;33.80;;;;;;;-144.99;100.00;52560.19;5069279;28;20665;-67
2020/12/13 01:31:35;;;;;;;70.03;36.40;;;;;;;-144.99;100.00;52562.25;5069413;28;20631;-68
2020/12/13 01:34:02;;;;;;;62.63;33.77;;;;;;;-144.99;100.00;52631.53;5069185;28;20714;-68
2020/12/13 01:36:28;;;;;;;61.50;31.17;;;;;;;-144.99;100.00;52568.34;5069173;28;20718;-69
2020/12/13 01:38:55;;;;;;;65.60;35.77;;;;;;;-144.99;100.00;52543.91;5068820;28;21074;-69
2020/12/13 01:41:21;;;;;;;72.20;36.50;;;;;;;-144.99;100.00;52568.34;5069527;28;20650;-69
2020/12/13 01:43:59;;;;;;;65.33;37.27;;;;;;;-144.99;100.00;52533.69;5068609;28;20658;-69
2020/12/13 01:46:25;;;;;;;66.03;34.77;;;;;;;-144.99;100.00;52529.63;5061475;28;21199;-68
2020/12/13 01:48:59;;;;;;;60.47;31.40;;;;;;;-144.99;100.00;52541.84;5069070;28;20655;-68
2020/12/13 01:51:39;;;;;;;64.07;34.50;;;;;;;-144.99;100.00;52533.69;5069579;28;20630;-67
2020/12/13 01:54:08;;;;;;;69.57;32.90;;;;;;;-144.99;100.00;52570.38;5069220;28;20692;-67
2020/12/13 01:56:35;;;;;;;49.57;28.83;;;;;;;-144.99;100.00;52515.34;5066256;28;20757;-68
2020/12/13 01:59:02;;;;;;;67.93;32.50;;;;;;;-144.99;100.00;52578.53;5068695;28;20686;-67
2020/12/13 02:01:29;;;;;;;64.33;32.30;;;;;;;-144.99;100.00;52537.78;5069687;28;20615;-68
2020/12/13 02:03:59;;;;;;;62.97;33.73;;;;;;;-144.99;100.00;52574.47;5069042;28;20665;-68
2020/12/13 02:06:30;;;;;;;65.20;32.63;;;;;;;-144.99;100.00;52566.31;5068884;28;20999;-68
2020/12/13 02:08:56;;;;;;;55.73;30.23;;;;;;;-144.99;100.00;52519.44;5070072;28;21086;-67
2020/12/13 02:11:23;;;;;;;63.40;32.60;;;;;;;-144.99;100.00;52554.09;5070367;28;20679;-66
2020/12/13 02:13:50;;;;;;;64.00;33.17;;;;;;;-144.99;100.00;52586.69;5069291;28;20619;-66
2020/12/13 02:16:18;;;;;;;49.17;28.40;;;;;;;-144.99;100.00;52570.38;5068707;28;20667;-67
2020/12/13 02:18:45;;;;;;;51.30;26.50;;;;;;;-144.99;100.00;52521.47;5068791;28;21013;-68
2020/12/13 02:21:12;;;;;;;48.23;27.63;;;;;;;-144.99;100.00;52513.31;5064778;28;20627;-69
2020/12/13 02:23:40;;;;;;;59.20;31.53;;;;;;;-144.99;100.00;52537.78;5067265;28;20772;-68
2020/12/13 02:26:06;;;;;;;55.67;30.73;;;;;;;-144.99;100.00;52529.63;5072775;28;20615;-68
2020/12/13 02:28:35;;;;;;;48.77;28.40;;;;;;;-144.99;100.00;52545.94;5070766;28;20681;-68
2020/12/13 02:31:02;;;;;;;62.97;32.07;;;;;;;-144.99;100.00;52578.53;5070950;28;20611;-69
2020/12/13 02:33:28;;;;;;;56.00;33.50;;;;;;;-144.99;100.00;52574.47;5069033;28;20658;-68
2020/12/13 02:35:54;;;;;;;56.83;31.17;;;;;;;-144.99;100.00;52505.16;5068317;28;20738;-68
2020/12/13 02:38:20;;;;;;;53.63;29.00;;;;;;;-144.99;100.00;52537.78;5070093;28;21426;-68
2020/12/13 02:40:47;;;;;;;59.53;29.97;;;;;;;-144.99;100.00;52570.38;5072849;28;21246;-69
2020/12/13 02:43:13;;;;;;;55.03;29.90;;;;;;;-144.99;100.00;52545.94;5072397;28;20780;-68
2020/12/13 02:45:40;;;;;;;52.43;29.83;;;;;;;-144.99;100.00;52550.00;5063063;28;21037;-68
2020/12/13 02:48:06;;;;;;;52.70;29.63;;;;;;;-144.99;100.00;52513.31;5072436;28;21068;-68
2020/12/13 02:50:32;;;;;;;55.43;30.70;;;;;;;-144.99;100.00;52556.13;5072286;28;20698;-69
2020/12/13 02:52:58;;;;;;;54.97;28.00;;;;;;;-144.99;100.00;52562.25;5072994;28;20657;-67
2020/12/13 02:55:24;;;;;;;53.53;27.43;;;;;;;-144.99;100.00;52558.16;5072390;28;20658;-67
2020/12/13 02:57:51;;;;;;;60.80;31.00;;;;;;;-144.99;100.00;52586.69;5072228;28;20679;-68
2020/12/13 03:00:18;;;;;;;58.17;28.87;;;;;;;-144.99;100.00;52543.91;5072510;28;20913;-69
2020/12/13 03:02:44;;;;;;;50.40;29.50;;;;;;;-144.99;100.00;52560.19;5071934;28;20647;-67
2020/12/13 03:05:10;;;;;;;58.97;29.97;;;;;;;-144.99;100.00;52550.00;5072222;28;20738;-67
2020/12/13 03:07:36;;;;;;;54.87;32.33;;;;;;;-144.99;100.00;52550.00;5071941;28;20650;-68
2020/12/13 03:10:03;;;;;;;50.53;32.53;;;;;;;-144.99;100.00;52527.59;5071643;28;21222;-67
2020/12/13 03:12:29;;;;;;;50.20;30.53;;;;;;;-144.99;100.00;52505.16;5071656;28;20719;-67
2020/12/13 03:14:56;;;;;;;48.27;27.50;;;;;;;-144.99;100.00;52541.84;5071836;28;20684;-67
2020/12/13 03:17:22;;;;;;;48.93;28.27;;;;;;;-144.99;100.00;52511.28;5071359;28;20751;-67
2020/12/13 03:19:48;;;;;;;61.80;33.20;;;;;;;-144.99;100.00;52537.78;5071201;28;20622;-67
2020/12/13 03:22:15;;;;;;;49.17;29.93;;;;;;;-144.99;100.00;52562.25;5071784;28;20791;-67
2020/12/13 03:24:41;;;;;;;54.50;29.60;;;;;;;-144.99;100.00;52572.44;5071528;28;20646;-67
2020/12/13 03:27:07;;;;;;;59.87;32.40;;;;;;;-144.99;100.00;52529.63;5071722;28;20685;-67
2020/12/13 03:29:33;;;;;;;65.47;31.90;;;;;;;-144.99;100.00;52537.78;5071334;28;20618;-68
2020/12/13 03:32:00;;;;;;;59.60;33.90;;;;;;;-144.99;100.00;52566.31;5071651;28;20666;-68
2020/12/13 03:34:26;;;;;;;53.73;29.73;;;;;;;-144.99;100.00;52533.69;5071600;28;20634;-68
2020/12/13 03:36:53;;;;;;;53.13;28.67;;;;;;;-144.99;100.00;52570.38;5071585;28;21038;-69
2020/12/13 03:39:19;;;;;;;59.00;30.30;;;;;;;-144.99;100.00;52586.69;5070975;28;20753;-69
2020/12/13 03:41:45;;;;;;;50.10;29.33;;;;;;;-144.99;100.00;52570.38;5071256;28;20984;-69
2020/12/13 03:44:13;;;;;;;52.20;27.07;;;;;;;-144.99;100.00;52543.91;5067690;28;21070;-69
2020/12/13 03:46:40;;;;;;;53.63;26.17;;;;;;;-144.99;100.00;52554.09;5065644;28;20638;-68
2020/12/13 03:49:07;;;;;;;56.93;27.57;;;;;;;-144.99;100.00;52550.00;5070028;28;21187;-68
2020/12/13 03:51:33;;;;;;;49.57;27.13;;;;;;;-144.99;100.00;52537.78;5070833;28;20667;-68
2020/12/13 03:53:59;;;;;;;50.40;29.10;;;;;;;-144.99;100.00;52560.19;5071382;28;20709;-68
2020/12/13 03:56:25;;;;;;;54.97;30.67;;;;;;;-144.99;100.00;52562.25;5057784;28;20726;-67
2020/12/13 03:58:51;;;;;;;53.23;31.07;;;;;;;-144.99;100.00;52554.09;5071151;28;20650;-67
2020/12/13 04:01:17;;;;;;;51.50;29.53;;;;;;;-144.99;100.00;52533.69;5071077;28;20662;-68
2020/12/13 04:03:43;;;;;;;54.27;28.43;;;;;;;-144.99;100.00;52541.84;5070657;28;20761;-68
2020/12/13 04:06:10;;;;;;;62.40;32.80;;;;;;;-144.99;100.00;52541.84;5071391;28;20731;-68
2020/12/13 04:08:36;;;;;;;54.53;27.90;;;;;;;-144.99;100.00;52586.69;5071414;28;20761;-69
2020/12/13 04:11:03;;;;;;;53.03;30.13;;;;;;;-144.99;100.00;52550.00;5071051;28;20654;-69
2020/12/13 04:13:29;;;;;;;51.97;30.90;;;;;;;-144.99;100.00;52537.78;5070944;28;20658;-69
2020/12/13 04:15:55;;;;;;;48.57;27.40;;;;;;;-144.99;100.00;52560.19;5070620;28;20646;-69
2020/12/13 04:18:22;;;;;;;51.67;30.27;;;;;;;-144.99;100.00;52525.56;5070513;28;20753;-69
2020/12/13 04:20:48;;;;;;;57.40;31.23;;;;;;;-144.99;100.00;52558.16;5069638;28;20703;-69
2020/12/13 04:23:15;;;;;;;57.97;28.17;;;;;;;-144.99;100.00;52541.84;5065777;28;20682;-70
2020/12/13 04:25:41;;;;;;;60.00;29.17;;;;;;;-144.99;100.00;52545.94;5070479;28;20711;-69
2020/12/13 04:28:07;;;;;;;55.83;30.33;;;;;;;-144.99;100.00;52545.94;5070299;28;20678;-69
2020/12/13 04:30:33;;;;;;;63.47;35.60;;;;;;;-144.99;100.00;52543.91;5070612;28;21208;-69
2020/12/13 04:32:59;;;;;;;57.63;30.37;;;;;;;-144.99;100.00;52590.78;5070631;28;20717;-69
2020/12/13 04:35:25;;;;;;;62.50;34.40;;;;;;;-144.99;100.00;52550.00;5070491;28;21152;-69
2020/12/13 04:37:51;;;;;;;60.70;30.57;;;;;;;-144.99;100.00;52566.31;5070217;28;20695;-69
2020/12/13 04:40:19;;;;;;;63.10;33.47;;;;;;;-144.99;100.00;52554.09;5070292;28;20661;-69
2020/12/13 04:42:45;;;;;;;53.33;29.60;;;;;;;-144.99;100.00;52558.16;5069906;28;20654;-69
2020/12/13 04:45:11;;;;;;;58.17;26.33;;;;;;;-144.99;100.00;52562.25;5070052;28;20669;-68
2020/12/13 04:47:51;;;;;;;50.43;29.57;;;;;;;-144.99;100.00;52537.78;5069222;28;20760;-69
2020/12/13 04:50:19;;;;;;;55.13;29.37;;;;;;;-144.99;100.00;52543.91;5069987;28;20709;-69
2020/12/13 04:52:46;;;;;;;52.67;31.73;;;;;;;-144.99;100.00;52537.78;5070008;28;20627;-69
2020/12/13 04:55:13;;;;;;;60.77;29.87;;;;;;;-144.99;100.00;52588.75;5064423;28;20782;-70
2020/12/13 04:57:40;;;;;;;47.77;28.70;;;;;;;-144.99;100.00;52525.56;5062104;28;20746;-68
2020/12/13 05:00:06;;;;;;;59.50;33.50;;;;;;;-144.99;100.00;52568.34;5069911;28;20706;-69
2020/12/13 05:02:32;;;;;;;72.03;30.00;;;;;;;-144.99;100.00;52570.38;5069731;28;21200;-69
2020/12/13 05:04:58;;;;;;;62.37;31.27;;;;;;;-144.99;100.00;52537.78;5069916;28;20749;-68
2020/12/13 05:07:25;;;;;;;59.20;34.13;;;;;;;-144.99;100.00;52550.00;5069850;28;20651;-68
2020/12/13 05:09:52;;;;;;;63.67;34.83;;;;;;;-144.99;100.00;52533.69;5069740;28;20658;-68
2020/12/13 05:12:23;;;;;;;61.90;35.00;;;;;;;-144.99;100.00;52492.94;5069424;28;21194;-68
2020/12/13 05:14:50;;;;;;;52.73;35.40;;;;;;;-144.99;100.00;52541.84;5069315;28;20655;-68
2020/12/13 05:17:16;;;;;;;46.60;29.80;;;;;;;-144.99;100.00;52521.47;5069596;28;20683;-69
2020/12/13 05:19:43;;;;;;;56.40;29.43;;;;;;;-144.99;100.00;52611.16;5069138;28;20623;-68
2020/12/13 05:22:09;;;;;;;55.20;29.40;;;;;;;-144.99;100.00;52558.16;5063872;28;20709;-69
2020/12/13 05:24:36;;;;;;;55.00;28.27;;;;;;;-144.99;100.00;52545.94;5069424;28;21050;-69
2020/12/13 05:27:04;;;;;;;60.20;27.23;;;;;;;-144.99;100.00;52582.63;5069443;28;20629;-69
2020/12/13 05:29:35;;;;;;;52.87;30.27;;;;;;;-144.99;100.00;52529.63;5069133;28;20626;-69
2020/12/13 05:32:13;;;;;;;43.97;26.23;;;;;;;-144.99;100.00;52541.84;5069483;28;20692;-68
2020/12/13 05:34:40;;;;;;;52.67;27.87;;;;;;;-144.99;100.00;52529.63;5069164;28;20669;-69
2020/12/13 05:37:13;;;;;;;50.60;32.13;;;;;;;-144.99;100.00;52533.69;5068931;28;20635;-69
2020/12/13 05:39:40;;;;;;;55.90;28.27;;;;;;;-144.99;100.00;52537.78;5068984;28;21176;-69
2020/12/13 05:42:06;;;;;;;60.43;29.57;;;;;;;-144.99;100.00;52558.16;5069225;28;20676;-69
2020/12/13 05:44:51;;;;;;;55.13;32.93;;;;;;;-144.99;100.00;52556.13;5062550;28;20683;-69
2020/12/13 05:47:24;;;;;;;54.33;30.83;;;;;;;-144.99;100.00;52574.47;5068609;28;21203;-69
2020/12/13 05:50:21;;;;;;;56.60;31.70;;;;;;;-144.99;100.00;52552.03;5068748;28;20623;-69
2020/12/13 05:52:48;;;;;;;51.60;27.07;;;;;;;-144.99;100.00;52562.25;5069439;28;21032;-69
2020/12/13 05:55:14;;;;;;;55.77;29.20;;;;;;;-144.99;100.00;52525.56;5068747;28;20630;-67
2020/12/13 05:57:41;;;;;;;60.47;33.43;;;;;;;-144.99;100.00;52566.31;5068812;28;20639;-67
2020/12/13 06:00:08;;;;;;;55.73;30.00;;;;;;;-144.99;100.00;52547.97;5069239;28;21069;-67
2020/12/13 06:02:37;;;;;;;58.43;30.37;;;;;;;-144.99;100.00;52554.09;5069412;28;20817;-68
2020/12/13 06:05:05;;;;;;;53.70;27.63;;;;;;;-144.99;100.00;52547.97;5069449;28;20758;-68
2020/12/13 06:07:35;;;;;;;51.47;28.87;;;;;;;-144.99;100.00;52533.69;5069100;28;20655;-68
2020/12/13 06:10:04;;;;;;;49.67;30.57;;;;;;;-144.99;100.00;52558.16;5069048;28;20661;-69
2020/12/13 06:12:31;;;;;;;61.43;32.73;;;;;;;-144.99;100.00;52558.16;5067938;28;20623;-69
2020/12/13 06:15:00;;;;;;;68.37;35.53;;;;;;;-144.99;100.00;52497.00;5068928;28;20662;-68
2020/12/13 06:17:27;;;;;;;52.40;31.53;;;;;;;-144.99;100.00;52533.69;5068652;28;20734;-69
2020/12/13 06:19:54;;;;;;;56.03;28.03;;;;;;;-144.99;100.00;52560.19;5068326;28;20669;-68
2020/12/13 06:22:22;;;;;;;44.80;25.40;;;;;;;-144.99;100.00;52558.16;5068973;28;21131;-69
2020/12/13 06:24:49;;;;;;;55.70;27.77;;;;;;;-144.99;100.00;52533.69;5068590;28;20693;-69
2020/12/13 06:27:16;;;;;;;49.03;27.83;;;;;;;-144.99;100.00;52570.38;5068138;28;20665;-69
2020/12/13 06:29:42;;;;;;;58.40;30.50;;;;;;;-144.99;100.00;52531.66;5068475;28;21176;-70
2020/12/13 06:32:10;;;;;;;50.30;27.67;;;;;;;-144.99;100.00;52509.25;5068787;28;20721;-69
2020/12/13 06:34:36;;;;;;;50.60;28.80;;;;;;;-144.99;100.00;52558.16;5068457;28;20626;-68
2020/12/13 06:37:04;;;;;;;51.00;29.10;;;;;;;-144.99;100.00;52545.94;5069052;28;21040;-67
2020/12/13 06:39:31;;;;;;;44.50;27.17;;;;;;;-144.99;100.00;52545.94;5070266;28;20615;-67
2020/12/13 06:42:03;;;;;;;39.83;26.97;;;;;;;-144.99;100.00;52550.00;5070434;28;21060;-67
2020/12/13 06:44:30;;;;;;;42.73;25.20;;;;;;;-144.99;100.00;52562.25;5063017;28;20659;-67
2020/12/13 06:46:56;;;;;;;54.03;28.37;;;;;;;-144.99;100.00;52554.09;5065242;28;20623;-68
2020/12/13 06:49:22;;;;;;;48.67;26.37;;;;;;;-144.99;100.00;52537.78;5068264;28;20614;-68
2020/12/13 06:51:48;;;;;;;46.47;25.70;;;;;;;-144.99;100.00;52533.69;5068531;28;20619;-68
2020/12/13 06:54:17;;;;;;;45.10;27.17;;;;;;;-144.99;100.00;52527.59;5068787;28;20642;-68
2020/12/13 06:56:45;;;;;;;50.63;26.93;;;;;;;-144.99;100.00;52545.94;5068520;28;20619;-67
2020/12/13 06:59:12;;;;;;;36.57;24.47;;;;;;;-144.99;100.00;52521.47;5068123;28;20741;-67
2020/12/13 07:01:40;;;;;;;43.03;24.87;;;;;;;-144.99;100.00;52566.31;5068847;28;20662;-68
2020/12/13 07:04:27;;;;;;;44.60;25.83;;;;;;;-144.99;100.00;52541.84;5067958;28;21089;-68
2020/12/13 07:06:59;;;;;;;43.37;26.87;;;;;;;-144.99;100.00;52541.84;5067810;28;20829;-68
2020/12/13 07:09:26;;;;;;;45.37;24.40;;;;;;;-144.99;100.00;52554.09;5068050;28;20658;-69
2020/12/13 07:11:53;;;;;;;38.43;22.50;;;;;;;-144.99;100.00;52525.56;5068529;28;21255;-69
2020/12/13 07:14:22;;;;;;;48.87;25.47;;;;;;;-144.99;100.00;52586.69;5067871;28;21036;-69
2020/12/13 07:16:58;;;;;;;44.50;26.33;;;;;;;-144.99;100.00;52533.69;5069123;28;20618;-69
2020/12/13 07:19:25;;;;;;;39.73;22.73;;;;;;;-144.99;100.00;52515.34;5067215;28;20634;-69
2020/12/13 07:21:59;;;;;;;42.73;25.13;;;;;;;-144.99;100.00;52529.63;5068147;28;20647;-68
2020/12/13 07:24:26;;;;;;;46.27;25.30;;;;;;;-144.99;100.00;52578.53;5069892;28;20756;-69
2020/12/13 07:26:54;;;;;;;38.20;24.30;;;;;;;-144.99;100.00;52541.84;5071568;28;21222;-69
2020/12/13 07:29:20;;;;;;;45.33;25.53;;;;;;;-144.99;100.00;52541.84;5071049;28;20642;-68
2020/12/13 07:31:47;;;;;;;40.80;26.33;;;;;;;-144.99;100.00;52550.00;5071228;28;21047;-69
2020/12/13 07:34:14;;;;;;;41.20;23.03;;;;;;;-144.99;100.00;52572.44;5071755;28;20750;-69
2020/12/13 07:36:41;;;;;;;38.20;22.43;;;;;;;-144.99;100.00;52566.31;5071660;28;20669;-69
2020/12/13 07:39:12;;;;;;;43.20;24.30;;;;;;;-144.99;100.00;52545.94;5070933;28;20777;-69
2020/12/13 07:41:40;;;;;;;47.37;29.00;;;;;;;-144.99;100.00;52537.78;5071646;28;20667;-68
2020/12/13 07:44:09;;;;;;;50.03;27.27;;;;;;;-144.99;100.00;52558.16;5068169;28;20659;-67
2020/12/13 07:46:35;;;;;;;49.10;24.20;;;;;;;-144.99;100.00;52494.97;5065217;28;20654;-69
2020/12/13 07:49:10;;;;;;;52.03;27.57;;;;;;;-144.99;100.00;52558.16;5071183;28;20659;-67
2020/12/13 07:51:38;;;;;;;48.10;27.10;;;;;;;-144.99;100.00;52492.94;5071562;28;20721;-68
2020/12/13 07:54:16;;;;;;;45.33;24.50;;;;;;;-144.99;100.00;52539.81;5071330;28;21263;-69
2020/12/13 07:56:44;;;;;;;48.70;24.87;;;;;;;-144.99;100.00;52533.69;5071121;28;20709;-69
2020/12/13 07:59:12;;;;;;;45.20;25.83;;;;;;;-144.99;100.00;52533.69;5071601;28;20754;-69
2020/12/13 08:01:39;;;;;;;42.77;25.70;;;;;;;-144.99;100.00;52539.81;5071862;28;21032;-69
2020/12/13 08:04:06;;;;;;;44.27;26.00;;;;;;;-144.99;100.00;52545.94;5071046;28;21079;-70
2020/12/13 08:06:32;;;;;;;49.70;29.07;;;;;;;-144.99;100.00;52550.00;5071100;28;20730;-70
2020/12/13 08:08:58;;;;;;;50.80;28.70;;;;;;;-144.99;100.00;52554.09;5070860;28;20627;-71
2020/12/13 08:11:27;;;;;;;46.03;28.00;;;;;;;-144.99;100.00;52550.00;5070770;28;20647;-69
2020/12/13 08:13:55;;;;;;;52.63;30.60;;;;;;;-144.99;100.00;52550.00;5070800;28;20619;-69
2020/12/13 08:16:23;;;;;;;50.73;29.63;;;;;;;-144.99;100.00;52558.16;5071189;28;21033;-69
2020/12/13 08:18:51;;;;;;;51.50;30.63;;;;;;;-144.99;100.00;52550.00;5070954;28;20690;-69
2020/12/13 08:21:29;;;;;;;46.67;28.33;;;;;;;-144.99;100.00;52525.56;5071013;28;20669;-69
2020/12/13 08:23:57;;;;;;;43.20;27.03;;;;;;;-144.99;100.00;52523.50;5063833;28;21028;-69
2020/12/13 08:26:25;;;;;;;50.27;28.50;;;;;;;-144.99;100.00;52566.31;5058056;28;20662;-68
2020/12/13 08:28:53;;;;;;;49.43;27.80;;;;;;;-144.99;100.00;52550.00;5070278;28;20746;-68
2020/12/13 08:31:25;;;;;;;44.90;27.87;;;;;;;-144.99;100.00;52521.47;5070526;28;20626;-69
2020/12/13 08:34:00;;;;;;;45.13;27.60;;;;;;;-144.99;100.00;52543.91;5071477;28;21027;-70
2020/12/13 08:36:26;;;;;;;48.50;29.77;;;;;;;-144.99;100.00;52547.97;5070889;28;20618;-70
2020/12/13 08:39:04;;;;;;;47.83;27.27;;;;;;;-144.99;100.00;52558.16;5070149;28;21243;-69
2020/12/13 08:41:31;;;;;;;56.17;29.83;;;;;;;-144.99;100.00;52525.56;5070567;28;20654;-69
2020/12/13 08:43:57;;;;;;;53.33;28.00;;;;;;;-144.99;100.00;52521.47;5068811;28;20998;-69
2020/12/13 08:46:33;;;;;;;47.33;31.20;;;;;;;-144.99;100.00;52517.41;5063225;28;20639;-68
2020/12/13 08:49:00;;;;;;;61.37;28.17;;;;;;;-144.99;100.00;52558.16;5070392;28;20630;-68
2020/12/13 08:51:27;;;;;;;59.90;32.40;;;;;;;-144.99;100.00;52537.78;5070613;28;20627;-68
2020/12/13 08:53:58;;;;;;;54.10;31.10;;;;;;;-144.99;100.00;52525.56;5070425;28;20680;-68
2020/12/13 08:56:35;;;;;;;52.20;29.90;;;;;;;-144.99;100.00;52519.44;5070024;28;20650;-69
2020/12/13 08:59:03;;;;;;;54.90;28.23;;;;;;;-144.99;100.00;52545.94;5069446;28;20733;-70
2020/12/13 09:01:32;;;;;;;59.33;29.63;;;;;;;-144.99;100.00;52501.09;5069661;28;20722;-69
2020/12/13 09:03:59;;;;;;;58.50;32.77;;;;;;;-144.99;100.00;52541.84;5069916;28;20659;-69
2020/12/13 09:06:29;;;;;;;62.00;34.27;;;;;;;-144.99;100.00;52558.16;5070620;28;20684;-69
2020/12/13 09:09:07;;;;;;;51.60;29.30;;;;;;;-144.99;100.00;52566.31;5069754;28;21072;-69
2020/12/13 09:11:33;;;;;;;49.07;32.40;;;;;;;-144.99;100.00;52533.69;5070615;28;20618;-69
2020/12/13 09:14:00;;;;;;;55.53;32.00;;;;;;;-144.99;100.00;52558.16;5069465;28;20718;-69
2020/12/13 09:16:27;;;;;;;53.27;35.57;;;;;;;-144.99;100.00;52554.09;5072371;28;20870;-68
2020/12/13 09:19:05;;;;;;;66.33;36.27;;;;;;;-144.99;100.00;52515.34;5069624;28;20669;-68
2020/12/13 09:21:52;;;;;;;55.00;29.87;;;;;;;-144.99;100.00;52533.69;5070295;28;20637;-69
2020/12/13 09:24:20;;;;;;;55.83;32.03;;;;;;;-144.99;100.00;52517.41;5069307;28;21218;-69
2020/12/13 09:27:04;;;;;;;64.70;33.73;;;;;;;-144.99;100.00;52576.50;5069552;28;20622;-69
2020/12/13 09:29:31;;;;;;;56.83;33.30;;;;;;;-144.99;100.00;52550.00;5069158;28;20682;-69
2020/12/13 09:31:58;;;;;;;61.80;32.83;;;;;;;-144.99;100.00;52562.25;5070014;28;20654;-69
2020/12/13 09:34:25;;;;;;;69.37;33.33;;;;;;;-144.99;100.00;52554.09;5069100;28;21041;-69
2020/12/13 09:36:51;;;;;;;68.30;36.13;;;;;;;-144.99;100.00;52541.84;5068961;28;21032;-69
2020/12/13 09:39:18;;;;;;;49.53;29.00;;;;;;;-144.99;100.00;52533.69;5069330;28;20650;-70
2020/12/13 09:41:44;;;;;;;60.73;34.77;;;;;;;-144.99;100.00;52562.25;5071227;28;20607;-69
2020/12/13 09:44:10;;;;;;;53.30;30.77;;;;;;;-144.99;100.00;52550.00;5071816;28;20679;-72
2020/12/13 09:46:36;;;;;;;50.87;32.93;;;;;;;-144.99;100.00;52550.00;5067809;28;20623;-70
2020/12/13 09:49:02;;;;;;;54.03;31.93;;;;;;;-144.99;100.00;52525.56;5071377;28;20700;-69
2020/12/13 09:51:29;;;;;;;58.60;31.77;;;;;;;-144.99;100.00;52566.31;5073001;28;20623;-70
2020/12/13 09:53:55;;;;;;;62.27;38.23;;;;;;;-144.99;100.00;52562.25;5078169;28;21182;-69
2020/12/13 09:56:22;;;;;;;64.37;36.33;;;;;;;-144.99;100.00;52562.25;5061429;28;20663;-68
2020/12/13 09:58:48;;;;;;;69.97;36.03;;;;;;;-144.99;100.00;52533.69;5078092;28;20657;-70
2020/12/13 10:01:15;;;;;;;67.23;35.53;;;;;;;-144.99;100.00;52521.47;5078440;28;20631;-70
2020/12/13 10:03:46;;;;;;;60.87;31.00;;;;;;;-144.99;100.00;52517.41;5072213;28;20627;-69
2020/12/13 10:09:08;;;;;;;72.37;37.80;;;;;;;-144.99;100.00;52537.78;5057409;28;20703;-70
2020/12/13 10:11:37;;;;;;;66.47;33.17;;;;;;;-144.99;100.00;52521.47;5073643;28;20599;-69
2020/12/13 10:14:04;;;;;;;74.00;33.13;;;;;;;-144.99;100.00;52541.84;5078116;28;20629;-74
2020/12/13 10:16:30;;;;;;;66.37;35.97;;;;;;;-144.99;100.00;52517.41;5079947;28;20619;-73
2020/12/13 10:18:57;;;;;;;78.33;34.87;;;;;;;-144.99;100.00;52578.53;5079082;28;20639;-71
2020/12/13 10:21:24;;;;;;;66.53;34.23;;;;;;;-144.99;100.00;52574.47;5075744;28;20662;-72
2020/12/13 10:23:51;;;;;;;54.53;31.50;;;;;;;-144.99;100.00;52533.69;5080089;28;20627;-73
2020/12/13 10:26:18;;;;;;;76.30;33.27;;;;;;;-144.99;100.00;52582.63;5078152;28;21214;-73
2020/12/13 10:28:44;;;;;;;66.53;34.80;;;;;;;-144.99;100.00;52543.91;5084427;28;20647;-72
2020/12/13 10:31:12;;;;;;;67.10;36.80;;;;;;;-144.99;100.00;52517.41;5077614;28;20627;-73
2020/12/13 10:33:40;;;;;;;83.40;39.17;;;;;;;-144.99;100.00;52527.59;5081376;28;20637;-72
2020/12/13 10:36:08;;;;;;;69.17;38.87;;;;;;;-144.99;100.00;52590.78;5071548;28;20627;-72
2020/12/13 10:38:34;;;;;;;66.80;36.27;;;;;;;-144.99;100.00;52515.34;5075261;28;20646;-71
2020/12/13 10:41:00;;;;;;;64.03;35.47;;;;;;;-144.99;100.00;52517.41;5079424;28;20766;-71
2020/12/13 10:43:27;;;;;;;75.00;36.47;;;;;;;-144.99;100.00;52521.47;5077076;28;20736;-71
2020/12/13 10:45:53;;;;;;;73.80;38.30;;;;;;;-144.99;100.00;52550.00;5066349;28;21114;-72
2020/12/13 10:48:19;;;;;;;67.07;35.60;;;;;;;-144.99;100.00;52554.09;5072663;28;20853;-71
2020/12/13 10:50:46;;;;;;;68.07;35.13;;;;;;;-144.99;100.00;52570.38;5079688;28;20678;-72
2020/12/13 10:53:12;;;;;;;76.43;40.87;;;;;;;-144.99;100.00;52545.94;5077358;28;20619;-71
2020/12/13 10:55:38;;;;;;;60.93;33.60;;;;;;;-144.99;100.00;52550.00;5076580;28;20662;-71
2020/12/13 10:58:04;;;;;;;71.93;36.60;;;;;;;-144.99;100.00;52562.25;5077988;28;20703;-71
2020/12/13 11:00:31;;;;;;;70.13;37.13;;;;;;;-144.99;100.00;52541.84;5075737;28;20658;-72